Time;durP1;ratioP1;P1;durP2;ratioP2;P2;SDS_P1;SDS_P2;PMS_P1;PMS_P2;Temp;Humidity;BMP_temperature;BMP_pressure;BME280_temperature;BME280_humidity;BME280_pressure;Samples;Min_cycle;Max_cycle;Signal;HPM_P1;HPM_P2
2022/02/02 00:04:35;;;;;;;;;;;;;;;19.77;43.62;101918.44;7276929;19;153279;-50
2022/02/02 00:09:33;;;;;;;;;;;;;;;19.74;43.36;101919.00;7282820;19;153750;-50
2022/02/02 00:17:09;;;;;;;;;;;;;;;19.80;43.59;101917.88;7280902;19;153410;-50
2022/02/02 00:22:17;;;;;;;;;;;;;;;19.70;44.14;101925.44;7283330;19;152891;-50
2022/02/02 00:27:16;;;;;;;;;;;;;;;19.67;44.26;101937.22;7278760;19;152032;-50
2022/02/02 00:29:48;;;;;;;;;;;;;;;19.66;44.40;101935.53;7285779;19;153358;-50
2022/02/02 00:34:46;;;;;;;;;;;;;;;19.62;44.40;101938.06;7282588;19;152375;-50
2022/02/02 00:37:15;;;;;;;;;;;;;;;19.61;44.62;101939.16;7283146;19;154810;-50
2022/02/02 00:39:42;;;;;;;;;;;;;;;19.58;44.60;101933.28;7283773;19;151867;-50
2022/02/02 00:42:09;;;;;;;;;;;;;;;19.58;44.57;101925.69;7283003;19;152881;-51
2022/02/02 00:44:41;;;;;;;;;;;;;;;19.58;44.95;101919.28;7277250;19;154533;-50
2022/02/02 00:47:08;;;;;;;;;;;;;;;19.57;44.69;101914.78;7282113;19;152006;-50
2022/02/02 00:49:36;;;;;;;;;;;;;;;19.56;44.89;101913.94;7287879;19;153787;-51
2022/02/02 00:52:03;;;;;;;;;;;;;;;19.54;45.04;101921.75;7281557;19;151970;-50
2022/02/02 00:54:30;;;;;;;;;;;;;;;19.53;45.33;101920.09;7283124;19;152796;-50
2022/02/02 00:56:56;;;;;;;;;;;;;;;19.53;45.42;101926.53;7282029;19;154128;-50
2022/02/02 00:59:23;;;;;;;;;;;;;;;19.52;45.41;101924.88;7281874;19;152032;-50
2022/02/02 01:01:51;;;;;;;;;;;;;;;19.51;45.54;101920.38;7281291;19;154296;-51
2022/02/02 01:04:18;;;;;;;;;;;;;;;19.52;45.57;101924.03;7277850;19;152288;-50
2022/02/02 01:06:57;;;;;;;;;;;;;;;19.52;45.28;101940.84;7282191;19;151908;-50
2022/02/02 01:09:46;;;;;;;;;;;;;;;19.50;45.80;101937.47;7279815;19;152222;-50
2022/02/02 01:20:04;;;;;;;;;;;;;;;19.49;45.49;101927.34;7287648;19;152025;-50
2022/02/02 01:27:49;;;;;;;;;;;;;;;19.46;45.75;101916.72;7287056;19;152091;-50
2022/02/02 01:30:16;;;;;;;;;;;;;;;19.46;45.97;101916.72;7285714;19;152703;-51
2022/02/02 01:32:43;;;;;;;;;;;;;;;19.44;45.67;101910.56;7289149;19;153780;-50
2022/02/02 01:35:15;;;;;;;;;;;;;;;19.43;45.98;101911.66;7293286;19;151942;-51
2022/02/02 01:37:42;;;;;;;;;;;;;;;19.42;45.81;101919.19;7287032;19;153674;-50
2022/02/02 01:40:19;;;;;;;;;;;;;;;19.43;45.99;101925.66;7286555;19;152332;-50
2022/02/02 01:42:54;;;;;;;;;;;;;;;19.41;46.17;101925.06;7289044;19;153325;-51
2022/02/02 01:45:26;;;;;;;;;;;;;;;19.40;46.05;101926.19;7286571;19;153890;-49
2022/02/02 01:50:47;;;;;;;;;;;;;;;19.36;45.96;101914.69;7289124;19;152113;-50
2022/02/02 01:55:42;;;;;;;;;;;;;;;19.34;45.98;101910.50;7288344;19;151785;-50
2022/02/02 02:00:39;;;;;;;;;;;;;;;19.31;46.37;101905.44;7288309;19;151927;-50
2022/02/02 02:03:06;;;;;;;;;;;;;;;19.29;46.31;101896.47;7287992;19;153338;-49
2022/02/02 02:05:33;;;;;;;;;;;;;;;19.27;46.32;101884.69;7285219;19;152576;-50
2022/02/02 02:07:59;;;;;;;;;;;;;;;19.26;46.20;101889.44;7288161;19;151808;-50
2022/02/02 02:10:26;;;;;;;;;;;;;;;19.26;46.53;101897.84;7287271;19;152821;-50
2022/02/02 02:12:59;;;;;;;;;;;;;;;19.22;46.79;101899.53;7285598;19;153356;-50
2022/02/02 02:15:29;;;;;;;;;;;;;;;19.23;46.62;101901.22;7285438;19;151578;-50
2022/02/02 02:17:57;;;;;;;;;;;;;;;19.20;46.83;101912.16;7285824;19;152796;-50
2022/02/02 02:20:24;;;;;;;;;;;;;;;19.21;46.85;101920.28;7290857;19;154057;-50
2022/02/02 02:22:51;;;;;;;;;;;;;;;19.20;46.92;101921.41;7282958;19;152159;-50
2022/02/02 02:25:18;;;;;;;;;;;;;;;19.19;46.56;101908.50;7282910;19;153330;-50
2022/02/02 02:27:45;;;;;;;;;;;;;;;19.19;47.07;101914.09;7286513;19;151770;-50
2022/02/02 02:30:22;;;;;;;;;;;;;;;19.18;47.08;101914.38;7282300;19;152352;-50
2022/02/02 02:38:27;;;;;;;;;;;;;;;19.15;47.29;101903.72;7284513;19;153251;-51
2022/02/02 02:56:24;;;;;;;;;;;;;;;19.09;47.57;101892.50;7284648;19;152190;-50
2022/02/02 03:01:47;;;;;;;;;;;;;;;19.09;47.84;101900.06;7284251;19;153411;-51
2022/02/02 03:30:17;;;;;;;;;;;;;;;18.99;48.35;101931.66;7282104;19;153346;-51
2022/02/02 03:34:27;;;;;;;;;;;;;;;19.00;48.02;101938.97;7282438;19;153634;-51
2022/02/02 04:01:47;;;;;;;;;;;;;;;18.94;48.49;101934.44;7282220;19;152797;-50
2022/02/02 04:09:23;;;;;;;;;;;;;;;18.93;48.37;101920.75;7283833;19;152743;-50
2022/02/02 04:11:59;;;;;;;;;;;;;;;18.93;48.31;101909.53;7281368;19;153416;-50
2022/02/02 04:58:50;;;;;;;;;;;;;;;18.80;49.11;101930.50;7280113;19;152917;-50
2022/02/02 05:11:32;;;;;;;;;;;;;;;18.79;49.25;101942.78;7282451;19;152814;-50
2022/02/02 05:53:04;;;;;;;;;;;;;;;18.92;49.91;101987.09;7281354;19;152800;-50
2022/02/02 05:55:33;;;;;;;;;;;;;;;18.96;49.88;101987.38;7280170;19;154158;-50
2022/02/02 05:58:01;;;;;;;;;;;;;;;19.03;49.53;101996.41;7281467;19;152089;-50
2022/02/02 06:00:28;;;;;;;;;;;;;;;19.07;49.81;101989.13;7285987;19;152835;-50
2022/02/02 06:02:58;;;;;;;;;;;;;;;19.13;50.67;101985.22;7286395;19;152791;-50
2022/02/02 06:05:27;;;;;;;;;;;;;;;19.20;50.47;101985.84;7287334;19;151973;-50
2022/02/02 06:07:55;;;;;;;;;;;;;;;19.30;51.12;101982.22;7294938;19;152818;-51
2022/02/02 06:10:24;;;;;;;;;;;;;;;19.36;51.46;101979.16;7285886;19;151875;-51
2022/02/02 06:12:52;;;;;;;;;;;;;;;19.44;50.79;101980.63;7286051;19;153186;-50
2022/02/02 06:15:18;;;;;;;;;;;;;;;19.50;50.56;101974.75;7285009;19;153966;-50
2022/02/02 06:17:50;;;;;;;;;;;;;;;19.59;50.78;101975.03;7287688;19;152241;-51
2022/02/02 06:20:17;;;;;;;;;;;;;;;19.65;50.44;101979.56;7284224;19;152669;-51
2022/02/02 06:22:47;;;;;;;;;;;;;;;19.73;50.07;101979.00;7284772;19;152204;-51
2022/02/02 06:25:23;;;;;;;;;;;;;;;19.80;50.14;101978.75;7287751;19;152254;-51
2022/02/02 06:27:58;;;;;;;;;;;;;;;19.87;49.65;101970.88;7287383;19;153759;-50
2022/02/02 06:30:26;;;;;;;;;;;;;;;19.93;49.32;101969.78;7290604;19;153387;-51
2022/02/02 06:32:57;;;;;;;;;;;;;;;20.01;49.66;101957.13;7285254;19;152044;-50
2022/02/02 06:35:24;;;;;;;;;;;;;;;20.07;49.13;101970.91;7281376;19;153751;-50
2022/02/02 06:37:50;;;;;;;;;;;;;;;20.15;49.02;101975.09;7287772;19;151904;-50
2022/02/02 06:40:18;;;;;;;;;;;;;;;20.21;48.90;101974.00;7287066;19;153295;-51
2022/02/02 06:42:45;;;;;;;;;;;;;;;20.27;48.88;101970.03;7284135;19;153868;-50
2022/02/02 06:45:12;;;;;;;;;;;;;;;20.34;48.25;101981.88;7286992;19;151604;-50
2022/02/02 06:47:40;;;;;;;;;;;;;;;20.39;48.18;101979.91;7283436;19;153374;-50
2022/02/02 06:50:16;;;;;;;;;;;;;;;20.45;48.09;101975.09;7281047;19;153203;-50
2022/02/02 06:52:47;;;;;;;;;;;;;;;20.50;48.01;101977.91;7292837;19;152084;-50
2022/02/02 06:55:27;;;;;;;;;;;;;;;20.57;47.81;101981.28;7285965;19;154071;-50
2022/02/02 06:58:07;;;;;;;;;;;;;;;20.64;48.52;101992.19;7285564;19;151959;-51
2022/02/02 07:03:26;;;;;;;;;;;;;;;20.76;48.24;101989.91;7283445;19;153985;-50
2022/02/02 07:06:09;;;;;;;;;;;;;;;20.81;47.92;101981.47;7284094;19;152098;-50
2022/02/02 07:08:51;;;;;;;;;;;;;;;20.88;47.81;101984.00;7282443;19;153713;-50
2022/02/02 07:11:32;;;;;;;;;;;;;;;20.92;47.56;101985.97;7282445;19;153451;-50
2022/02/02 07:19:15;;;;;;;;;;;;;;;21.15;47.57;101999.38;7284542;19;151727;-51
2022/02/02 07:27:10;;;;;;;;;;;;;;;21.29;46.07;102022.94;7283365;19;152387;-49
2022/02/02 07:34:34;;;;;;;;;;;;;;;21.45;45.64;102043.38;7279406;19;153126;-50
2022/02/02 07:37:05;;;;;;;;;;;;;;;21.49;45.32;102036.06;7286535;19;152614;-49
2022/02/02 07:39:33;;;;;;;;;;;;;;;21.54;45.42;102038.00;7285890;19;151903;-49
2022/02/02 07:42:03;;;;;;;;;;;;;;;21.61;44.99;102038.53;7283148;19;153413;-50
2022/02/02 07:44:34;;;;;;;;;;;;;;;21.56;43.52;102039.41;7281950;19;153897;-50
2022/02/02 07:47:04;;;;;;;;;;;;;;;21.54;43.55;102050.09;7283142;19;152077;-49
2022/02/02 07:49:35;;;;;;;;;;;;;;;21.55;43.56;102048.97;7285618;19;153485;-49
2022/02/02 07:52:02;;;;;;;;;;;;;;;21.55;43.02;102060.22;7284562;19;153365;-49
2022/02/02 07:54:35;;;;;;;;;;;;;;;21.54;43.12;102055.72;7283908;19;152150;-49
2022/02/02 07:57:20;;;;;;;;;;;;;;;21.55;42.76;102054.59;7283256;19;153553;-49
2022/02/02 07:59:55;;;;;;;;;;;;;;;21.56;43.24;102061.06;7291112;19;153513;-49
2022/02/02 08:02:30;;;;;;;;;;;;;;;21.56;42.61;102056.28;7282093;19;153708;-49
2022/02/02 08:04:57;;;;;;;;;;;;;;;21.55;43.01;102062.19;7281305;19;153503;-49
2022/02/02 08:07:29;;;;;;;;;;;;;;;21.56;43.00;102066.69;7280626;19;151547;-50
2022/02/02 08:10:08;;;;;;;;;;;;;;;21.55;42.47;102065.84;7284513;19;153361;-49
2022/02/02 08:12:44;;;;;;;;;;;;;;;21.55;42.78;102065.84;7281838;19;152222;-50
2022/02/02 08:15:12;;;;;;;;;;;;;;;21.53;42.22;102065.28;7284473;19;151939;-50
2022/02/02 08:17:40;;;;;;;;;;;;;;;21.56;42.66;102067.53;7282362;19;153217;-49
2022/02/02 08:20:07;;;;;;;;;;;;;;;21.60;42.42;102071.44;7279100;19;153257;-49
2022/02/02 08:22:34;;;;;;;;;;;;;;;21.57;42.40;102074.00;7288406;19;151656;-49
2022/02/02 08:25:03;;;;;;;;;;;;;;;21.56;42.27;102078.78;7280373;19;153839;-49
2022/02/02 08:27:30;;;;;;;;;;;;;;;21.52;42.22;102077.69;7282487;19;152249;-49
2022/02/02 08:29:57;;;;;;;;;;;;;;;21.49;42.25;102066.97;7282887;19;152218;-49
2022/02/02 08:32:29;;;;;;;;;;;;;;;21.49;42.32;102057.69;7283210;19;153675;-50
2022/02/02 08:34:59;;;;;;;;;;;;;;;21.47;42.30;102068.41;7281242;19;152190;-49
2022/02/02 08:37:32;;;;;;;;;;;;;;;21.45;42.77;102068.69;7278767;19;153417;-49
2022/02/02 08:40:17;;;;;;;;;;;;;;;21.44;42.52;102069.00;7279680;19;154035;-50
2022/02/02 08:42:44;;;;;;;;;;;;;;;21.41;42.70;102067.59;7280912;19;151861;-51
2022/02/02 08:45:18;;;;;;;;;;;;;;;21.39;42.55;102072.69;7290559;19;153440;-51
2022/02/02 08:47:53;;;;;;;;;;;;;;;21.37;42.61;102065.63;7283420;19;152377;-49
2022/02/02 08:50:27;;;;;;;;;;;;;;;21.35;42.20;102065.91;7283409;19;153848;-50
2022/02/02 08:52:58;;;;;;;;;;;;;;;21.33;42.27;102062.56;7279134;19;153327;-49
2022/02/02 08:55:56;;;;;;;;;;;;;;;21.31;42.65;102064.81;7281834;19;151909;-50
2022/02/02 09:00:53;;;;;;;;;;;;;;;21.29;42.66;102055.84;7282446;19;152005;-50
2022/02/02 09:05:55;;;;;;;;;;;;;;;21.22;42.42;102069.34;7283617;19;152863;-50
2022/02/02 09:08:28;;;;;;;;;;;;;;;21.21;42.49;102070.50;7285554;19;153952;-50
2022/02/02 09:22:09;;;;;;;;;;;;;;;21.11;42.49;102060.09;7281305;19;154483;-49
2022/02/02 09:24:19;;;;;;;;;;;;;;;21.09;42.60;102055.84;7281036;19;152863;-49
2022/02/02 09:32:19;;;;;;;;;;;;;;;21.05;42.27;102043.50;7281015;19;153588;-49
2022/02/02 09:34:45;;;;;;;;;;;;;;;21.02;42.57;102039.31;7285356;19;153329;-50
2022/02/02 09:37:12;;;;;;;;;;;;;;;21.01;42.45;102059.25;7283170;19;152128;-49
2022/02/02 09:39:45;;;;;;;;;;;;;;;21.00;42.39;102071.63;7287560;19;152267;-50
2022/02/02 09:42:15;;;;;;;;;;;;;;;20.96;42.62;102079.78;7287136;19;154259;-49
2022/02/02 09:44:44;;;;;;;;;;;;;;;20.94;42.39;102076.41;7289147;19;152570;-50
2022/02/02 09:52:18;;;;;;;;;;;;;;;20.87;42.48;102075.84;7291978;19;152251;-50
2022/02/02 10:05:28;;;;;;;;;;;;;;;20.76;42.46;102086.25;7286603;19;152177;-51
2022/02/02 10:08:47;;;;;;;;;;;;;;;20.76;42.56;102091.88;7286435;19;152065;-50
2022/02/02 10:11:34;;;;;;;;;;;;;;;20.73;42.50;102086.84;7273970;19;154086;-49
2022/02/02 10:16:40;;;;;;;;;;;;;;;20.68;42.99;102078.41;7292206;19;153242;-50
2022/02/02 10:19:15;;;;;;;;;;;;;;;20.66;42.70;102094.72;7286572;19;152198;-50
2022/02/02 10:21:42;;;;;;;;;;;;;;;20.65;42.67;102086.56;7283216;19;152912;-49
2022/02/02 10:24:09;;;;;;;;;;;;;;;20.63;42.53;102091.59;7283328;19;153549;-49
2022/02/02 10:26:44;;;;;;;;;;;;;;;20.60;42.63;102087.41;7285608;19;151944;-50
2022/02/02 10:29:14;;;;;;;;;;;;;;;20.59;42.68;102094.13;7282398;19;153519;-50
2022/02/02 10:31:43;;;;;;;;;;;;;;;20.56;42.88;102086.28;7285219;19;154185;-49
2022/02/02 10:34:12;;;;;;;;;;;;;;;20.55;43.03;102086.56;7284492;19;152129;-49
2022/02/02 10:36:39;;;;;;;;;;;;;;;20.53;42.91;102089.66;7284294;19;153331;-49
2022/02/02 10:39:10;;;;;;;;;;;;;;;20.51;42.88;102094.69;7292698;19;154096;-49
2022/02/02 10:41:53;;;;;;;;;;;;;;;20.49;42.80;102101.72;7286282;19;153209;-49
2022/02/02 10:44:31;;;;;;;;;;;;;;;20.46;42.65;102111.53;7282349;19;154255;-49
2022/02/02 10:47:16;;;;;;;;;;;;;;;20.44;43.08;102127.84;7284352;19;152106;-49
2022/02/02 10:52:32;;;;;;;;;;;;;;;20.42;42.95;102118.84;7281764;19;153836;-50
2022/02/02 11:00:36;;;;;;;;;;;;;;;20.35;43.08;102119.09;7283759;19;153746;-50
2022/02/02 11:08:18;;;;;;;;;;;;;;;20.34;42.73;102116.59;7283599;19;151874;-50
2022/02/02 11:10:47;;;;;;;;;;;;;;;20.33;42.80;102117.72;7285653;19;152883;-50
2022/02/02 11:13:16;;;;;;;;;;;;;;;20.31;42.84;102125.56;7282137;19;152453;-50
2022/02/02 11:15:48;;;;;;;;;;;;;;;20.29;43.02;102122.16;7284596;19;152062;-51
2022/02/02 11:18:16;;;;;;;;;;;;;;;20.27;42.67;102135.63;7284969;19;153754;-49
2022/02/02 11:20:42;;;;;;;;;;;;;;;20.24;42.90;102127.75;7279950;19;154337;-50
2022/02/02 11:23:10;;;;;;;;;;;;;;;20.25;43.18;102124.69;7281143;19;152092;-49
2022/02/02 11:25:38;;;;;;;;;;;;;;;20.21;42.72;102128.34;7289255;19;152830;-50
2022/02/02 11:28:06;;;;;;;;;;;;;;;20.19;43.00;102133.38;7283900;19;152134;-49
2022/02/02 11:30:34;;;;;;;;;;;;;;;20.17;42.77;102135.63;7284429;19;153563;-49
2022/02/02 11:33:17;;;;;;;;;;;;;;;20.15;42.80;102130.28;7282263;19;152213;-50
2022/02/02 11:35:46;;;;;;;;;;;;;;;20.14;42.86;102124.94;7282787;19;151937;-50
2022/02/02 11:38:32;;;;;;;;;;;;;;;20.11;42.79;102117.91;7283051;19;153722;-51
2022/02/02 11:41:14;;;;;;;;;;;;;;;20.10;42.69;102116.22;7281948;19;154115;-50
2022/02/02 11:46:28;;;;;;;;;;;;;;;20.07;42.71;102114.00;7288764;19;152136;-50
2022/02/02 11:49:00;;;;;;;;;;;;;;;20.06;42.82;102103.03;7281966;19;151927;-50
2022/02/02 11:51:37;;;;;;;;;;;;;;;20.03;42.86;102107.25;7283434;19;153628;-50
2022/02/02 11:54:04;;;;;;;;;;;;;;;20.03;42.84;102112.88;7283571;19;153382;-49
2022/02/02 11:56:32;;;;;;;;;;;;;;;20.03;43.22;102100.78;7277012;19;151795;-50
2022/02/02 11:59:18;;;;;;;;;;;;;;;20.00;43.06;102093.75;7282336;19;153391;-49
2022/02/02 12:01:45;;;;;;;;;;;;;;;19.97;43.26;102088.72;7281238;19;153201;-50
2022/02/02 12:04:23;;;;;;;;;;;;;;;19.97;42.91;102103.59;7283895;19;151676;-50
2022/02/02 12:09:34;;;;;;;;;;;;;;;19.91;42.89;102107.47;7287340;19;153147;-49
2022/02/02 12:20:55;;;;;;;;;;;;;;;19.98;43.36;102079.19;7282321;19;152583;-49
2022/02/02 12:47:00;;;;;;;;;;;;;;;20.53;42.82;102058.78;7283713;19;151956;-49
2022/02/02 12:55:38;;;;;;;;;;;;;;;20.72;42.73;102062.66;7283877;19;151960;-49
2022/02/02 12:57:37;;;;;;;;;;;;;;;20.79;42.69;102063.25;7288699;19;152859;-49
2022/02/02 13:00:06;;;;;;;;;;;;;;;20.84;42.28;102057.63;7283173;19;152221;-50
2022/02/02 13:02:35;;;;;;;;;;;;;;;20.90;42.37;102052.81;7282884;19;152727;-49
2022/02/02 13:05:03;;;;;;;;;;;;;;;20.96;42.45;102062.91;7280811;19;153690;-49
2022/02/02 13:07:30;;;;;;;;;;;;;;;21.00;42.45;102072.47;7282826;19;152298;-50
2022/02/02 13:09:59;;;;;;;;;;;;;;;21.04;42.33;102075.53;7275966;19;154427;-49
2022/02/02 13:12:28;;;;;;;;;;;;;;;21.08;42.01;102071.03;7275756;19;154690;-50
2022/02/02 13:17:44;;;;;;;;;;;;;;;21.15;41.93;102063.19;7281674;19;153065;-49
2022/02/02 13:20:14;;;;;;;;;;;;;;;21.19;42.17;102061.47;7289052;19;153713;-49
2022/02/02 13:22:47;;;;;;;;;;;;;;;21.21;41.95;102054.44;7278965;19;153252;-50
2022/02/02 13:25:23;;;;;;;;;;;;;;;21.24;41.76;102058.66;7274067;19;153227;-50
2022/02/02 13:27:50;;;;;;;;;;;;;;;21.26;41.98;102050.75;7280809;19;151764;-50
2022/02/02 13:30:27;;;;;;;;;;;;;;;21.28;41.66;102069.03;7279581;19;153422;-49
2022/02/02 13:33:09;;;;;;;;;;;;;;;21.29;41.48;102055.84;7277986;19;153998;-50
2022/02/02 13:35:43;;;;;;;;;;;;;;;21.31;41.45;102053.56;7280457;19;151888;-51
2022/02/02 13:38:23;;;;;;;;;;;;;;;21.33;41.61;102051.31;7280800;19;152158;-49
2022/02/02 13:48:54;;;;;;;;;;;;;;;21.33;41.23;102037.25;7279875;19;152342;-50
2022/02/02 13:51:33;;;;;;;;;;;;;;;21.33;41.32;102037.25;7277765;19;153339;-49
2022/02/02 13:54:11;;;;;;;;;;;;;;;21.34;41.18;102050.19;7281785;19;152886;-49
2022/02/02 14:09:55;;;;;;;;;;;;;;;21.30;41.58;102041.47;7278536;19;152237;-49
2022/02/02 14:33:10;;;;;;;;;;;;;;;21.17;41.32;102001.91;7288120;19;153008;-49
2022/02/02 14:35:37;;;;;;;;;;;;;;;21.16;41.17;101998.28;7284225;19;153350;-49
2022/02/02 14:38:05;;;;;;;;;;;;;;;21.15;41.25;101993.78;7285705;19;152105;-49
2022/02/02 14:43:27;;;;;;;;;;;;;;;21.11;41.52;101974.94;7285986;19;154072;-49
2022/02/02 14:45:57;;;;;;;;;;;;;;;21.09;41.30;101972.41;7285871;19;152077;-49
2022/02/02 15:32:16;;;;;;;;;;;;;;;20.79;42.25;101967.75;7284598;19;154168;-50
2022/02/02 15:34:47;;;;;;;;;;;;;;;20.78;41.89;101953.97;7283774;19;151840;-50
2022/02/02 15:45:07;;;;;;;;;;;;;;;20.64;41.96;101953.72;7279463;19;153623;-49
2022/02/02 16:03:06;;;;;;;;;;;;;;;20.48;42.02;101957.72;7283946;19;152826;-49
2022/02/02 16:05:43;;;;;;;;;;;;;;;20.46;42.39;101957.13;7284035;19;153666;-49
2022/02/02 16:08:11;;;;;;;;;;;;;;;20.45;42.13;101957.41;7282573;19;151880;-49
2022/02/02 16:10:47;;;;;;;;;;;;;;;20.43;42.23;101963.34;7282872;19;152696;-49
2022/02/02 16:13:28;;;;;;;;;;;;;;;20.41;41.97;101962.75;7278158;19;153976;-49
2022/02/02 16:15:58;;;;;;;;;;;;;;;20.39;41.95;101965.88;7282961;19;152109;-49
2022/02/02 16:39:07;;;;;;;;;;;;;;;20.23;42.46;101969.75;7284034;19;155619;-49
2022/02/02 16:44:12;;;;;;;;;;;;;;;20.20;42.09;101975.94;7289611;19;152317;-48
2022/02/02 16:46:39;;;;;;;;;;;;;;;20.17;42.11;101972.88;7281745;19;153871;-49
2022/02/02 16:49:06;;;;;;;;;;;;;;;20.16;42.45;101960.81;7281253;19;151794;-49
2022/02/02 16:51:33;;;;;;;;;;;;;;;20.15;42.45;101967.53;7281499;19;153095;-49
2022/02/02 16:54:02;;;;;;;;;;;;;;;20.13;42.48;101964.16;7283251;19;153621;-50
2022/02/02 16:56:43;;;;;;;;;;;;;;;20.11;42.30;101963.59;7284202;19;151851;-49
2022/02/02 17:28:49;;;;;;;;;;;;;;;19.91;42.66;101972.84;7271684;19;154020;-49
2022/02/02 17:30:29;;;;;;;;;;;;;;;19.89;42.69;101966.69;7277941;19;154225;-48
2022/02/02 17:43:10;;;;;;;;;;;;;;;19.79;42.50;101955.47;7270309;19;154410;-49
2022/02/02 18:15:11;;;;;;;;;;;;;;;19.64;42.60;101952.63;7296101;19;151854;-49
2022/02/02 18:19:23;;;;;;;;;;;;;;;19.60;42.96;101959.06;7289179;19;151656;-50
2022/02/02 18:21:51;;;;;;;;;;;;;;;19.60;42.62;101956.25;7283916;19;153775;-49
2022/02/02 18:24:25;;;;;;;;;;;;;;;19.59;42.58;101958.22;7287585;19;153955;-50
2022/02/02 18:27:00;;;;;;;;;;;;;;;19.58;43.00;101958.50;7287250;19;152134;-49
2022/02/02 18:29:38;;;;;;;;;;;;;;;19.57;42.62;101965.25;7288830;19;153059;-50
2022/02/02 19:00:27;;;;;;;;;;;;;;;19.43;42.96;101928.47;7293325;19;153922;-50
2022/02/02 19:08:14;;;;;;;;;;;;;;;19.39;42.97;101930.13;7287408;19;151580;-49
2022/02/02 20:01:42;;;;;;;;;;;;;;;19.18;43.48;101904.00;7279831;19;154142;-50
2022/02/02 20:12:50;;;;;;;;;;;;;;;19.32;43.42;101881.91;7277828;19;153438;-50
2022/02/02 20:15:17;;;;;;;;;;;;;;;19.36;43.55;101883.03;7279829;19;153378;-50
2022/02/02 20:17:46;;;;;;;;;;;;;;;19.39;43.19;101883.34;7279103;19;152195;-50
2022/02/02 20:20:16;;;;;;;;;;;;;;;19.44;43.32;101876.94;7281954;19;152542;-51
2022/02/02 20:22:44;;;;;;;;;;;;;;;19.48;43.44;101878.91;7280938;19;152798;-49
2022/02/02 20:25:12;;;;;;;;;;;;;;;19.55;43.30;101864.59;7279672;19;151660;-49
2022/02/02 20:27:40;;;;;;;;;;;;;;;19.61;43.12;101865.44;7282020;19;152699;-50
2022/02/02 20:30:08;;;;;;;;;;;;;;;19.67;43.24;101865.16;7289276;19;153368;-49
2022/02/02 20:32:35;;;;;;;;;;;;;;;19.72;43.17;101861.50;7278245;19;152835;-50
2022/02/02 20:35:03;;;;;;;;;;;;;;;19.79;43.02;101862.06;7280473;19;153702;-49
2022/02/02 20:37:30;;;;;;;;;;;;;;;19.85;43.11;101860.97;7279522;19;151702;-50
2022/02/02 20:40:01;;;;;;;;;;;;;;;19.91;43.32;101855.03;7281620;19;152765;-50
2022/02/02 20:45:11;;;;;;;;;;;;;;;20.05;42.96;101843.25;7281581;19;152144;-50
2022/02/02 21:08:03;;;;;;;;;;;;;;;20.60;42.06;101845.91;7279489;19;152730;-51
2022/02/02 21:10:27;;;;;;;;;;;;;;;20.66;42.34;101856.00;7277427;19;153787;-50
2022/02/02 21:15:27;;;;;;;;;;;;;;;20.76;42.25;101844.72;7288299;19;151592;-51
2022/02/02 21:18:04;;;;;;;;;;;;;;;20.80;42.16;101834.56;7282382;19;151665;-51
2022/02/02 21:20:39;;;;;;;;;;;;;;;20.88;42.08;101835.13;7278630;19;152228;-51
2022/02/02 21:23:13;;;;;;;;;;;;;;;20.94;41.72;101839.59;7278069;19;152599;-51
2022/02/02 21:25:46;;;;;;;;;;;;;;;21.00;42.32;101844.03;7279695;19;152215;-51
2022/02/02 21:28:13;;;;;;;;;;;;;;;21.03;41.63;101844.28;7282541;19;153734;-51
2022/02/02 21:30:45;;;;;;;;;;;;;;;21.06;41.90;101851.31;7282424;19;154205;-51
2022/02/02 21:33:15;;;;;;;;;;;;;;;21.08;41.70;101846.22;7281979;19;152080;-50
2022/02/02 21:35:43;;;;;;;;;;;;;;;21.11;41.89;101840.03;7283828;19;156261;-51
2022/02/02 21:38:19;;;;;;;;;;;;;;;21.14;41.95;101847.91;7294161;19;154006;-51
2022/02/02 21:40:51;;;;;;;;;;;;;;;21.16;41.38;101856.91;7285492;19;153061;-51
2022/02/02 21:43:18;;;;;;;;;;;;;;;21.18;41.47;101838.59;7285415;19;153904;-51
2022/02/02 21:45:50;;;;;;;;;;;;;;;21.22;41.18;101824.81;7285516;19;152381;-51
2022/02/02 21:48:18;;;;;;;;;;;;;;;21.23;41.07;101837.72;7285347;19;152105;-51
2022/02/02 21:53:15;;;;;;;;;;;;;;;21.26;41.15;101840.78;7283756;19;152236;-52
2022/02/02 21:55:42;;;;;;;;;;;;;;;21.28;40.97;101846.13;7286463;19;153957;-51
2022/02/02 21:58:10;;;;;;;;;;;;;;;21.28;40.81;101837.69;7283913;19;153698;-51
2022/02/02 22:00:38;;;;;;;;;;;;;;;21.29;40.84;101839.38;7291927;19;152569;-50
2022/02/02 22:03:07;;;;;;;;;;;;;;;21.28;40.96;101852.59;7283291;19;153286;-51
2022/02/02 22:05:35;;;;;;;;;;;;;;;21.28;41.12;101852.59;7281515;19;151674;-50
2022/02/02 22:08:06;;;;;;;;;;;;;;;21.27;40.90;101839.66;7284772;19;152574;-51
2022/02/02 22:10:33;;;;;;;;;;;;;;;21.26;40.71;101831.53;7283525;19;153117;-50
2022/02/02 22:13:01;;;;;;;;;;;;;;;21.26;40.53;101837.13;7282965;19;152366;-51
2022/02/02 22:15:38;;;;;;;;;;;;;;;21.24;40.66;101825.38;7269881;19;153211;-48
2022/02/02 22:18:05;;;;;;;;;;;;;;;21.22;40.47;101830.44;7275369;19;154222;-49
2022/02/02 22:20:33;;;;;;;;;;;;;;;21.21;40.73;101840.81;7280468;19;151996;-49
2022/02/02 22:23:00;;;;;;;;;;;;;;;21.19;40.64;101823.44;7284706;19;153217;-49
2022/02/02 22:25:28;;;;;;;;;;;;;;;21.18;40.68;101820.91;7275148;19;152889;-48
2022/02/02 22:27:55;;;;;;;;;;;;;;;21.17;40.92;101828.50;7282307;19;153233;-48
2022/02/02 22:30:23;;;;;;;;;;;;;;;21.16;40.54;101821.22;7283283;19;153630;-49
2022/02/02 22:32:55;;;;;;;;;;;;;;;21.15;40.58;101811.09;7282475;19;152935;-49
2022/02/02 22:35:24;;;;;;;;;;;;;;;21.14;40.83;101811.38;7278555;19;152437;-48
2022/02/02 22:37:51;;;;;;;;;;;;;;;21.13;40.79;101812.50;7281174;19;154190;-48
2022/02/02 22:40:43;;;;;;;;;;;;;;;21.11;40.94;101815.59;7260004;19;153100;-48
2022/02/02 22:43:13;;;;;;;;;;;;;;;21.11;41.00;101817.56;7274354;19;153599;-48
2022/02/02 22:45:43;;;;;;;;;;;;;;;21.09;40.86;101817.00;7281190;19;152679;-48
2022/02/02 22:48:10;;;;;;;;;;;;;;;21.07;41.10;101802.41;7284380;19;153914;-49
2022/02/02 22:50:42;;;;;;;;;;;;;;;21.06;41.06;101804.38;7268311;19;152385;-48
2022/02/02 22:53:09;;;;;;;;;;;;;;;21.03;40.92;101796.50;7279864;19;152073;-49
2022/02/02 22:56:00;;;;;;;;;;;;;;;21.01;41.04;101790.38;7271366;19;154433;-49
2022/02/02 22:58:48;;;;;;;;;;;;;;;21.00;40.97;101796.25;7276902;19;154045;-49
2022/02/02 23:01:15;;;;;;;;;;;;;;;20.97;41.21;101783.66;7278862;19;154406;-49
2022/02/02 23:03:42;;;;;;;;;;;;;;;20.97;41.25;101782.81;7282362;19;153305;-49
2022/02/02 23:06:09;;;;;;;;;;;;;;;20.94;40.80;101778.59;7291178;19;153696;-49
2022/02/02 23:08:37;;;;;;;;;;;;;;;20.94;41.03;101781.41;7284748;19;154141;-49
2022/02/02 23:11:04;;;;;;;;;;;;;;;20.92;41.26;101774.41;7284822;19;154481;-50
2022/02/02 23:13:31;;;;;;;;;;;;;;;20.91;41.27;101772.72;7282026;19;153167;-51
2022/02/02 23:16:09;;;;;;;;;;;;;;;20.88;41.43;101767.69;7277784;19;153651;-50
2022/02/02 23:18:38;;;;;;;;;;;;;;;20.88;41.24;101764.88;7282379;19;153963;-50
2022/02/02 23:21:08;;;;;;;;;;;;;;;20.85;41.32;101766.28;7284440;19;151868;-51
2022/02/02 23:23:46;;;;;;;;;;;;;;;20.82;41.58;101758.47;7281283;19;153505;-48
2022/02/02 23:26:15;;;;;;;;;;;;;;;20.79;41.51;101754.28;7283356;19;152879;-49
2022/02/02 23:28:46;;;;;;;;;;;;;;;20.77;41.51;101738.81;7290906;19;152068;-48
2022/02/02 23:31:15;;;;;;;;;;;;;;;20.76;41.51;101721.13;7281791;19;153888;-48
2022/02/02 23:33:44;;;;;;;;;;;;;;;20.73;41.65;101732.13;7282485;19;152358;-49
2022/02/02 23:36:12;;;;;;;;;;;;;;;20.71;41.33;101729.63;7282848;19;155746;-48
2022/02/02 23:38:38;;;;;;;;;;;;;;;20.70;41.58;101732.72;7280922;19;153871;-49
2022/02/02 23:43:42;;;;;;;;;;;;;;;20.69;41.92;101729.06;7284723;19;151675;-49
2022/02/02 23:46:12;;;;;;;;;;;;;;;20.68;41.80;101723.72;7283613;19;153448;-49
2022/02/02 23:48:43;;;;;;;;;;;;;;;20.67;42.10;101725.69;7284569;19;152067;-48